ADDS METAR Data INFO
IDs: Format: Raw Decoded Include TAF

Data at: 1330 UTC 19 Jul 2018

KPSP 191253Z 00000KT 10SM CLR 31/21 A2993 RMK AO2 SLP129 T03110206
KPSP 191153Z AUTO 00000KT 10SM CLR 31/21 A2991 RMK AO2 SLP124 T03110206 10344 20311 55000
KPSP 191053Z AUTO 04005KT 10SM CLR 32/21 A2991 RMK AO2 SLP123 T03170206
KPSP 190953Z AUTO 04004KT 10SM CLR 32/21 A2991 RMK AO2 SLP124 T03220211
KPSP 190853Z AUTO 12004KT 10SM CLR 32/22 A2991 RMK AO2 SLP125 T03220222 57001
KPSP 190753Z AUTO 36006KT 10SM FEW060 34/19 A2991 RMK AO2 SLP124 T03390194 403830289
KPSP 190653Z 34006KT 10SM CLR 34/19 A2992 RMK AO2 SLP125 T03440189
KPSP 190553Z 07003KT 10SM CLR 34/21 A2992 RMK AO2 SLP125 T03440211 10378 20344 51012
KPSP 190453Z 10006KT 10SM CLR 35/21 A2991 RMK AO2 SLP125 T03500206
KPSP 190353Z AUTO 10008KT 10SM CLR 36/20 A2989 RMK AO2 SLP118 T03560200
KPSP 190253Z AUTO 10010KT 10SM CLR 36/21 A2988 RMK AO2 SLP113 T03610211 53001
KPSP 190153Z 12008KT 10SM SCT090 37/22 A2987 RMK AO2 SLP109 T03670222
KPSP 190053Z 09007KT 10SM SCT100 37/23 A2987 RMK AO2 SLP109 T03720228
KPSP 182353Z 11010KT 10SM CLR 38/23 A2987 RMK AO2 LTG DSNT SW SLP111 T03780228 10383 20333 58021
KPSP 182253Z 10011KT 10SM CLR 37/23 A2990 RMK AO2 SLP118 T03670228
KPSP 182153Z 08008KT 10SM CLR 38/22 A2992 RMK AO2 SLP126 T03780222
KPSP 182053Z 10008G14KT 10SM CLR 37/22 A2994 RMK AO2 SLP132 T03720222 58027
KPSP 181953Z 11008KT 10SM CLR 36/22 A2997 RMK AO2 SLP143 T03560222
KPSP 181853Z VRB05KT 10SM CLR 35/22 A2999 RMK AO2 SLP149 T03500222
KPSP 181753Z 10007KT 10SM BKN039 BKN046 33/22 A3002 RMK AO2 SLP159 60000 T03330222 10344 20289 50003 $
KPSP 181653Z 11007KT 10SM SCT032 33/23 A3002 RMK AO2 SLP161 T03280228
KPSP 181553Z 10010KT 10SM SCT060 32/23 A3002 RMK AO2 SLP162 T03170233
KPSP 181453Z 07007KT 10SM CLR 31/23 A3001 RMK AO2 SLP156 60000 T03060228 53019
KPSP 181353Z 15009KT 10SM CLR 30/22 A2996 RMK AO2 SLP140 T03000217 $
KPSP 181253Z 00000KT 10SM CLR 30/21 A2994 RMK AO2 RAB17E28 SLP133 P0000 T03000211 $
KPSP 181153Z AUTO 07011KT 10SM FEW120 29/23 A2995 RMK AO2 WSHFT 1045 RAB1059E39 SLP137 P0000 60000 T02940233 10356 20294 50017 $
KPSP 181124Z AUTO 21009KT 10SM -RA FEW055 FEW070 BKN110 31/23 A2995 RMK AO2 WSHFT 1045 LTG DSNT S RAB1059 PRESFR P0000 T03060228 $
KPSP 181100Z AUTO 18013G23KT 10SM VCTS -RA SCT085 BKN110 31/22 A3000 RMK AO2 WSHFT 1045 LTG DSNT N-SE RAB1059 PRESFR P0000 T03110217 $
KPSP 181053Z AUTO 16015G26KT 10SM BKN080 BKN110 32/22 A3001 RMK AO2 PK WND 13026/1049 LTG DSNT N-SE SLP159 T03170217 $
KPSP 180953Z AUTO 07007KT 10SM CLR 32/17 A2995 RMK AO2 LTG DSNT NE SLP137 T03220172 $
KPSP 180853Z AUTO 00000KT 10SM CLR 33/18 A2990 RMK AO2 SLP120 T03280178 53004 $
KPSP 180753Z AUTO 29003KT 10SM CLR 33/18 A2988 RMK AO2 SLP115 T03330178 404170306 $
KPSP 180653Z AUTO 33013KT 10SM CLR 34/17 A2987 RMK AO2 SLP110 T03440172 $
KPSP 180553Z 32009KT 10SM CLR 36/18 A2989 RMK AO2 SLP116 T03560178 10406 20356 51025 $
KPSP 180453Z 35007KT 10SM CLR 37/18 A2988 RMK AO2 SLP112 T03670178 $
KPSP 180438Z 35009KT 10SM CLR 37/18 A2987 RMK AO2 T03670183 $
KPSP 180353Z 11007KT 10SM CLR 38/20 A2983 RMK AO2 SLP097 T03780200 $
KPSP 180253Z 12007KT 10SM CLR 38/20 A2981 RMK AO2 SLP090 T03830200 55001 $
KPSP 180153Z 13007KT 10SM CLR 39/18 A2980 RMK AO2 SLP087 T03940183 $